createdAt,value
2022-10-05T00:00:01.869Z,99645.98
2022-10-05T00:01:04.333Z,99649.57
2022-10-05T00:02:06.838Z,99648.35
2022-10-05T00:03:09.503Z,99643.93
2022-10-05T00:04:12.022Z,99639.78
2022-10-05T00:05:14.711Z,99640.16
2022-10-05T00:06:17.395Z,99645.27
2022-10-05T00:07:19.837Z,99652.20
2022-10-05T00:08:22.277Z,99640.28
2022-10-05T00:09:24.709Z,99649.95
2022-10-05T00:10:27.444Z,99643.48
2022-10-05T00:11:30.119Z,99644.58
2022-10-05T00:12:32.561Z,99640.02
2022-10-05T00:13:34.989Z,99644.31
2022-10-05T00:14:37.427Z,99641.03
2022-10-05T00:15:39.880Z,99601.06
2022-10-05T00:16:42.645Z,99643.81
2022-10-05T00:17:45.295Z,99641.19
2022-10-05T00:18:47.737Z,99639.99
2022-10-05T00:19:50.209Z,99642.74
2022-10-05T00:20:52.881Z,99638.70
2022-10-05T00:21:55.557Z,99646.59
2022-10-05T00:22:58.064Z,99638.32
2022-10-05T00:24:00.504Z,99636.65
2022-10-05T00:25:02.935Z,99642.74
2022-10-05T00:26:05.615Z,99640.44
2022-10-05T00:27:08.078Z,99643.19
2022-10-05T00:28:10.554Z,99640.56
2022-10-05T00:29:13.049Z,99647.22
2022-10-05T00:30:15.993Z,99649.73
2022-10-05T00:31:18.519Z,99641.97
2022-10-05T00:32:21.094Z,99647.22
2022-10-05T00:33:23.528Z,99649.86
2022-10-05T00:34:25.964Z,99649.41
2022-10-05T00:35:28.398Z,99653.52
2022-10-05T00:36:31.035Z,99653.26
2022-10-05T00:37:33.545Z,99651.08
2022-10-05T00:38:35.981Z,99658.40
2022-10-05T00:39:38.431Z,99663.20
2022-10-05T00:40:41.171Z,99659.73
2022-10-05T00:41:43.816Z,99664.31
2022-10-05T00:42:46.587Z,99664.42
2022-10-05T00:43:49.025Z,99668.04
2022-10-05T00:44:51.464Z,99673.41
2022-10-05T00:45:53.967Z,99669.56
2022-10-05T00:46:56.550Z,99676.73
2022-10-05T00:47:59.032Z,99673.03
2022-10-05T00:49:01.465Z,99674.37
2022-10-05T00:50:03.902Z,99674.90
2022-10-05T00:51:06.338Z,99681.95
2022-10-05T00:52:08.770Z,99684.00
2022-10-05T00:53:11.395Z,99682.33
2022-10-05T00:54:18.212Z,99684.00
2022-10-05T00:55:18.218Z,99688.80
2022-10-05T00:56:20.976Z,99687.38
2022-10-05T00:57:23.413Z,99692.64
2022-10-05T00:58:25.895Z,99692.06
2022-10-05T00:59:28.369Z,99686.95
2022-10-05T01:00:30.909Z,99688.02
2022-10-05T01:01:33.681Z,99695.59
2022-10-05T01:02:37.238Z,99691.29
2022-10-05T01:03:39.963Z,99695.59
2022-10-05T01:04:42.409Z,99699.89
2022-10-05T01:05:44.836Z,99699.75
2022-10-05T01:06:47.873Z,99704.31
2022-10-05T01:07:50.563Z,99699.31
2022-10-05T01:08:53.084Z,99698.85
2022-10-05T01:09:55.537Z,99701.59
2022-10-05T01:10:58.287Z,99706.04
2022-10-05T01:12:00.761Z,99707.83
2022-10-05T01:13:03.193Z,99696.59
2022-10-05T01:14:05.722Z,99706.27
2022-10-05T01:15:08.171Z,99698.53
2022-10-05T01:16:11.394Z,99703.06
2022-10-05T01:17:14.070Z,99704.63
2022-10-05T01:18:16.520Z,99700.44
2022-10-05T01:19:19.040Z,99704.16
2022-10-05T01:20:21.966Z,99705.11
2022-10-05T01:21:24.454Z,99705.36
2022-10-05T01:22:26.992Z,99696.97
2022-10-05T01:23:29.475Z,99698.06
2022-10-05T01:24:31.942Z,99698.91
2022-10-05T01:25:34.391Z,99697.23
2022-10-05T01:26:37.044Z,99694.60
2022-10-05T01:27:39.572Z,99694.02
2022-10-05T01:28:42.025Z,99700.00
2022-10-05T01:29:44.500Z,99703.43
2022-10-05T01:30:47.134Z,99700.95
2022-10-05T01:31:49.857Z,99703.25
2022-10-05T01:32:52.488Z,99701.11
2022-10-05T01:33:54.962Z,99700.16
2022-10-05T01:34:57.438Z,99701.43
2022-10-05T01:35:59.885Z,99700.84
2022-10-05T01:37:02.327Z,99694.65
2022-10-05T01:38:04.774Z,99694.39
2022-10-05T01:39:07.239Z,99689.66
2022-10-05T01:40:10.244Z,99692.86
2022-10-05T01:41:12.697Z,99699.06
2022-10-05T01:42:15.146Z,99698.11
2022-10-05T01:43:17.588Z,99701.43
2022-10-05T01:44:20.055Z,99698.80
2022-10-05T01:45:22.534Z,99692.75
2022-10-05T01:46:25.292Z,99693.55
2022-10-05T01:47:27.731Z,99699.64
2022-10-05T01:48:30.183Z,99695.86
2022-10-05T01:49:32.622Z,99703.87
2022-10-05T01:50:35.390Z,99698.84
2022-10-05T01:51:37.837Z,99699.43
2022-10-05T01:52:40.687Z,99698.63
2022-10-05T01:53:43.152Z,99696.11
2022-10-05T01:54:45.593Z,99701.11
2022-10-05T01:55:48.065Z,99698.63
2022-10-05T01:56:50.850Z,99703.98
2022-10-05T01:57:53.334Z,99695.27
2022-10-05T01:58:55.772Z,99705.30
2022-10-05T01:59:58.227Z,99705.66
2022-10-05T02:01:00.949Z,99707.45
2022-10-05T02:02:03.576Z,99701.00
2022-10-05T02:03:06.386Z,99707.20
2022-10-05T02:04:08.855Z,99709.70
2022-10-05T02:05:11.301Z,99716.02
2022-10-05T02:06:14.210Z,99710.77
2022-10-05T02:07:16.656Z,99712.45
2022-10-05T02:08:19.093Z,99710.77
2022-10-05T02:09:21.542Z,99715.44
2022-10-05T02:10:24.285Z,99716.27
2022-10-05T02:11:26.759Z,99722.25
2022-10-05T02:12:29.198Z,99724.99
2022-10-05T02:13:31.643Z,99718.42
2022-10-05T02:14:34.283Z,99722.11
2022-10-05T02:15:36.735Z,99722.00
2022-10-05T02:16:39.402Z,99722.33
2022-10-05T02:17:41.847Z,99716.97
2022-10-05T02:18:44.304Z,99718.61
2022-10-05T02:19:46.794Z,99722.07
2022-10-05T02:20:49.440Z,99716.45
2022-10-05T02:21:51.926Z,99722.54
2022-10-05T02:22:54.779Z,99717.28
2022-10-05T02:23:57.253Z,99730.30
2022-10-05T02:24:59.728Z,99729.47
2022-10-05T02:26:02.477Z,99723.81
2022-10-05T02:27:05.218Z,99725.86
2022-10-05T02:28:07.687Z,99719.33
2022-10-05T02:29:10.201Z,99722.66
2022-10-05T02:30:16.475Z,99726.84
2022-10-05T02:31:17.615Z,99728.11
2022-10-05T02:32:20.317Z,99730.05
2022-10-05T02:33:22.974Z,99722.02
2022-10-05T02:34:25.432Z,99721.44
2022-10-05T02:35:27.876Z,99726.44
2022-10-05T02:36:30.317Z,99733.63
2022-10-05T02:37:32.790Z,99730.05
2022-10-05T02:38:35.271Z,99728.27
2022-10-05T02:39:37.713Z,99731.69
2022-10-05T02:40:40.462Z,99733.11
2022-10-05T02:41:42.901Z,99733.69
2022-10-05T02:42:45.505Z,99730.38
2022-10-05T02:43:47.937Z,99736.58
2022-10-05T02:44:50.379Z,99737.16
2022-10-05T02:45:52.924Z,99740.63
2022-10-05T02:46:57.432Z,99729.80
2022-10-05T02:48:00.192Z,99729.28
2022-10-05T02:49:02.709Z,99731.67
2022-10-05T02:50:05.373Z,99729.28
2022-10-05T02:51:07.835Z,99729.86
2022-10-05T02:52:10.338Z,99734.05
2022-10-05T02:53:12.805Z,99736.41
2022-10-05T02:54:15.250Z,99737.83
2022-10-05T02:55:17.700Z,99741.67
2022-10-05T02:56:20.465Z,99745.71
2022-10-05T02:57:22.906Z,99743.92
2022-10-05T02:58:25.373Z,99749.76
2022-10-05T02:59:27.823Z,99736.73
2022-10-05T03:00:30.629Z,99753.66
2022-10-05T03:01:33.551Z,99747.91
2022-10-05T03:02:36.024Z,99750.85
2022-10-05T03:03:38.512Z,99753.68
2022-10-05T03:04:40.951Z,99754.90
2022-10-05T03:05:43.412Z,99758.48
2022-10-05T03:06:46.194Z,99758.48
2022-10-05T03:07:48.924Z,99755.84
2022-10-05T03:08:51.403Z,99755.59
2022-10-05T03:09:57.634Z,99759.89
2022-10-05T03:11:00.110Z,99756.88
2022-10-05T03:12:02.561Z,99760.09
2022-10-05T03:13:05.018Z,99761.19
2022-10-05T03:14:07.481Z,99756.77
2022-10-05T03:15:09.925Z,99765.34
2022-10-05T03:16:13.704Z,99756.36
2022-10-05T03:17:16.373Z,99757.08
2022-10-05T03:18:18.873Z,99758.75
2022-10-05T03:19:21.361Z,99764.25
2022-10-05T03:20:24.005Z,99757.92
2022-10-05T03:21:26.538Z,99772.70
2022-10-05T03:22:28.980Z,99760.40
2022-10-05T03:23:31.468Z,99762.08
2022-10-05T03:24:34.004Z,99771.64
2022-10-05T03:25:36.439Z,99767.80
2022-10-05T03:26:39.084Z,99767.91
2022-10-05T03:27:41.549Z,99765.59
2022-10-05T03:28:43.974Z,99766.23
2022-10-05T03:29:46.682Z,99774.31
2022-10-05T03:30:49.144Z,99774.46
2022-10-05T03:31:51.670Z,99761.53
2022-10-05T03:32:54.103Z,99774.77
2022-10-05T03:33:56.534Z,99772.14
2022-10-05T03:34:58.999Z,99768.32
2022-10-05T03:36:01.449Z,99777.52
2022-10-05T03:37:03.890Z,99775.26
2022-10-05T03:38:06.370Z,99781.47
2022-10-05T03:39:08.815Z,99776.56
2022-10-05T03:40:11.691Z,99779.11
2022-10-05T03:41:14.227Z,99775.95
2022-10-05T03:42:16.985Z,99784.94
2022-10-05T03:43:19.423Z,99778.58
2022-10-05T03:44:21.874Z,99789.09
2022-10-05T03:45:24.390Z,99776.06
2022-10-05T03:46:27.081Z,99783.15
2022-10-05T03:47:29.597Z,99789.36
2022-10-05T03:48:32.049Z,99790.31
2022-10-05T03:49:34.492Z,99785.89
2022-10-05T03:50:37.169Z,99788.59
2022-10-05T03:51:39.616Z,99787.04
2022-10-05T03:52:42.080Z,99792.48
2022-10-05T03:53:44.553Z,99783.91
2022-10-05T03:54:47.011Z,99794.43
2022-10-05T03:55:49.486Z,99787.34
2022-10-05T03:56:52.255Z,99794.16
2022-10-05T03:57:54.703Z,99799.69
2022-10-05T03:58:57.157Z,99797.75
2022-10-05T03:59:59.608Z,99802.06
2022-10-05T04:01:02.319Z,99803.85
2022-10-05T04:02:04.755Z,99800.00
2022-10-05T04:03:07.193Z,99812.20
2022-10-05T04:04:09.766Z,99810.25
2022-10-05T04:05:12.197Z,99807.50
2022-10-05T04:06:15.673Z,99806.40
2022-10-05T04:07:18.121Z,99811.39
2022-10-05T04:08:20.589Z,99810.70
2022-10-05T04:09:23.072Z,99810.83
2022-10-05T04:10:25.698Z,99811.97
2022-10-05T04:11:28.162Z,99811.13
2022-10-05T04:12:30.667Z,99813.91
2022-10-05T04:13:33.090Z,99810.44
2022-10-05T04:14:35.556Z,99820.84
2022-10-05T04:15:38.037Z,99816.16
2022-10-05T04:16:40.804Z,99818.81
2022-10-05T04:17:43.250Z,99813.67
2022-10-05T04:18:45.692Z,99820.05
2022-10-05T04:19:48.127Z,99815.35
2022-10-05T04:20:50.870Z,99812.59
2022-10-05T04:21:53.332Z,99820.49
2022-10-05T04:22:55.778Z,99821.98
2022-10-05T04:23:58.238Z,99820.31
2022-10-05T04:25:00.676Z,99818.94
2022-10-05T04:26:03.148Z,99823.70
2022-10-05T04:27:05.629Z,99806.05
2022-10-05T04:28:08.140Z,99824.92
2022-10-05T04:29:10.636Z,99821.33
2022-10-05T04:30:13.273Z,99825.61
2022-10-05T04:31:15.729Z,99827.73
2022-10-05T04:32:18.557Z,99822.97
2022-10-05T04:33:21.001Z,99833.69
2022-10-05T04:34:23.434Z,99832.28
2022-10-05T04:35:25.872Z,99832.04
2022-10-05T04:36:28.734Z,99830.09
2022-10-05T04:37:31.196Z,99826.63
2022-10-05T04:38:33.630Z,99828.42
2022-10-05T04:39:36.064Z,99830.55
2022-10-05T04:40:38.843Z,99830.39
2022-10-05T04:41:41.741Z,99832.07
2022-10-05T04:42:44.226Z,99833.74
2022-10-05T04:43:46.668Z,99839.58
2022-10-05T04:44:49.112Z,99834.58
2022-10-05T04:45:51.560Z,99833.74
2022-10-05T04:46:54.260Z,99838.62
2022-10-05T04:47:56.885Z,99846.52
2022-10-05T04:48:59.464Z,99838.34
2022-10-05T04:50:01.950Z,99834.03
2022-10-05T04:51:04.457Z,99844.30
2022-10-05T04:52:06.896Z,99831.38
2022-10-05T04:53:09.364Z,99837.62
2022-10-05T04:54:11.896Z,99840.14
2022-10-05T04:55:14.331Z,99842.78
2022-10-05T04:56:17.003Z,99847.92
2022-10-05T04:57:19.439Z,99846.25
2022-10-05T04:58:21.919Z,99851.53
2022-10-05T04:59:24.354Z,99845.04
2022-10-05T05:00:26.988Z,99848.91
2022-10-05T05:01:29.428Z,99849.47
2022-10-05T05:02:31.880Z,99849.34
2022-10-05T05:03:34.427Z,99854.89
2022-10-05T05:04:37.193Z,99853.50
2022-10-05T05:05:58.675Z,99856.14
2022-10-05T05:06:44.567Z,99853.50
2022-10-05T05:07:47.463Z,99856.86
2022-10-05T05:08:49.929Z,99853.66
2022-10-05T05:09:52.359Z,99857.25
2022-10-05T05:10:54.922Z,99863.92
2022-10-05T05:11:57.360Z,99867.00
2022-10-05T05:12:59.791Z,99862.30
2022-10-05T05:14:02.257Z,99861.30
2022-10-05T05:15:04.715Z,99860.62
2022-10-05T05:16:07.710Z,99862.70
2022-10-05T05:17:13.131Z,99859.90
2022-10-05T05:18:14.572Z,99857.70
2022-10-05T05:19:17.036Z,99865.34
2022-10-05T05:20:19.871Z,99858.55
2022-10-05T05:21:22.311Z,99868.53
2022-10-05T05:22:24.745Z,99860.78
2022-10-05T05:23:27.195Z,99866.05
2022-10-05T05:24:29.697Z,99862.86
2022-10-05T05:25:32.129Z,99866.57
2022-10-05T05:26:38.915Z,99856.87
2022-10-05T05:27:39.640Z,99866.57
2022-10-05T05:28:42.139Z,99865.22
2022-10-05T05:29:44.645Z,99861.74
2022-10-05T05:30:47.176Z,99857.88
2022-10-05T05:31:49.694Z,99859.95
2022-10-05T05:32:52.168Z,99864.81
2022-10-05T05:33:54.618Z,99862.75
2022-10-05T05:34:57.416Z,99861.75
2022-10-05T05:35:59.852Z,99862.59
2022-10-05T05:37:02.299Z,99857.76
2022-10-05T05:38:04.761Z,99860.27
2022-10-05T05:39:07.199Z,99859.55
2022-10-05T05:40:09.992Z,99857.48
2022-10-05T05:41:12.459Z,99855.13
2022-10-05T05:42:14.986Z,99855.84
2022-10-05T05:43:17.687Z,99857.80
2022-10-05T05:44:20.126Z,99850.72
2022-10-05T05:45:22.620Z,99864.05
2022-10-05T05:46:44.654Z,99856.86
2022-10-05T05:47:29.819Z,99858.09
2022-10-05T05:48:32.381Z,99869.63
2022-10-05T05:49:34.832Z,99863.28
2022-10-05T05:50:37.735Z,99860.91
2022-10-05T05:51:40.247Z,99866.19
2022-10-05T05:52:42.688Z,99860.91
2022-10-05T05:53:45.227Z,99860.34
2022-10-05T05:54:47.712Z,99860.21
2022-10-05T05:55:50.203Z,99862.27
2022-10-05T05:56:53.055Z,99863.95
2022-10-05T05:57:55.549Z,99861.02
2022-10-05T05:58:58.000Z,99872.13
2022-10-05T06:00:00.452Z,99871.00
2022-10-05T06:01:02.950Z,99869.91
2022-10-05T06:02:05.475Z,99876.83
2022-10-05T06:03:08.266Z,99876.44
2022-10-05T06:04:11.162Z,99873.38
2022-10-05T06:05:13.603Z,99882.68
2022-10-05T06:06:16.182Z,99874.05
2022-10-05T06:07:18.765Z,99875.05
2022-10-05T06:08:21.375Z,99883.65
2022-10-05T06:09:23.827Z,99880.17
2022-10-05T06:10:26.497Z,99875.73
2022-10-05T06:11:28.966Z,99874.77
2022-10-05T06:12:31.411Z,99880.72
2022-10-05T06:13:33.858Z,99883.36
2022-10-05T06:14:36.381Z,99880.72
2022-10-05T06:15:38.825Z,99890.60
2022-10-05T06:16:41.673Z,99887.25
2022-10-05T06:17:44.200Z,99886.58
2022-10-05T06:18:46.638Z,99892.53
2022-10-05T06:19:49.085Z,99886.55
2022-10-05T06:20:51.776Z,99895.85
2022-10-05T06:21:54.685Z,99879.75
2022-10-05T06:22:57.115Z,99888.22
2022-10-05T06:23:59.557Z,99883.32
2022-10-05T06:25:02.012Z,99889.98
2022-10-05T06:26:09.726Z,99886.80
2022-10-05T06:27:09.052Z,99886.34
2022-10-05T06:28:11.542Z,99889.98
2022-10-05T06:29:14.271Z,99889.14
2022-10-05T06:30:17.230Z,99896.23
2022-10-05T06:31:19.717Z,99896.09
2022-10-05T06:32:22.255Z,99889.14
2022-10-05T06:33:24.697Z,99899.55
2022-10-05T06:34:27.140Z,99895.64
2022-10-05T06:35:29.586Z,99897.02
2022-10-05T06:36:32.357Z,99897.30
2022-10-05T06:37:35.109Z,99904.22
2022-10-05T06:38:37.558Z,99906.86
2022-10-05T06:39:40.019Z,99908.66
2022-10-05T06:40:42.668Z,99910.88
2022-10-05T06:41:45.314Z,99912.92
2022-10-05T06:42:47.780Z,99913.47
2022-10-05T06:43:50.485Z,99917.35
2022-10-05T06:44:52.934Z,99910.27
2022-10-05T06:45:55.420Z,99907.99
2022-10-05T06:46:58.104Z,99917.89
2022-10-05T06:48:05.136Z,99915.38
2022-10-05T06:49:05.077Z,99911.77
2022-10-05T06:50:07.917Z,99915.36
2022-10-05T06:51:10.488Z,99911.17
2022-10-05T06:52:12.948Z,99907.16
2022-10-05T06:53:15.413Z,99912.06
2022-10-05T06:54:17.875Z,99914.95
2022-10-05T06:55:20.358Z,99915.38
2022-10-05T06:56:23.083Z,99914.30
2022-10-05T06:57:25.544Z,99920.56
2022-10-05T06:58:30.193Z,99925.04
2022-10-05T06:59:32.839Z,99923.20
2022-10-05T07:00:35.500Z,99920.30
2022-10-05T07:01:38.083Z,99925.12
2022-10-05T07:02:40.975Z,99931.52
2022-10-05T07:03:43.674Z,99933.02
2022-10-05T07:04:46.154Z,99934.50
2022-10-05T07:05:48.675Z,99919.71
2022-10-05T07:06:51.258Z,99927.77
2022-10-05T07:07:53.714Z,99928.84
2022-10-05T07:08:56.188Z,99931.14
2022-10-05T07:09:58.629Z,99928.19
2022-10-05T07:11:01.298Z,99929.79
2022-10-05T07:12:05.174Z,99926.48
2022-10-05T07:13:08.093Z,99917.47
2022-10-05T07:14:10.891Z,99929.11
2022-10-05T07:15:13.332Z,99928.42
2022-10-05T07:16:16.243Z,99920.16
2022-10-05T07:17:18.747Z,99924.55
2022-10-05T07:18:21.194Z,99928.91
2022-10-05T07:19:24.768Z,99921.02
2022-10-05T07:20:27.401Z,99926.55
2022-10-05T07:21:29.839Z,99931.33
2022-10-05T07:22:34.178Z,99931.59
2022-10-05T07:23:36.615Z,99945.36
2022-10-05T07:24:39.103Z,99946.06
2022-10-05T07:25:41.554Z,99949.40
2022-10-05T07:26:44.583Z,99946.75
2022-10-05T07:27:50.966Z,99955.87
2022-10-05T07:28:51.827Z,99956.39
2022-10-05T07:29:54.592Z,99953.92
2022-10-05T07:30:57.307Z,99963.42
2022-10-05T07:31:59.791Z,99958.58
2022-10-05T07:33:02.233Z,99959.42
2022-10-05T07:34:04.673Z,99960.26
2022-10-05T07:35:07.137Z,99959.61
2022-10-05T07:36:10.026Z,99958.17
2022-10-05T07:37:12.451Z,99957.84
2022-10-05T07:38:14.993Z,99956.03
2022-10-05T07:39:17.430Z,99957.38
2022-10-05T07:40:20.789Z,99964.36
2022-10-05T07:41:23.521Z,99950.92
2022-10-05T07:42:25.961Z,99958.27
2022-10-05T07:43:35.911Z,99958.59
2022-10-05T07:44:32.763Z,99964.73
2022-10-05T07:45:35.324Z,99963.33
2022-10-05T07:46:37.911Z,99961.00
2022-10-05T07:47:40.355Z,99960.67
2022-10-05T07:48:42.799Z,99961.58
2022-10-05T07:49:45.262Z,99965.09
2022-10-05T07:50:48.058Z,99968.73
2022-10-05T07:51:50.519Z,99967.75
2022-10-05T07:52:53.079Z,99960.92
2022-10-05T07:53:55.526Z,99973.71
2022-10-05T07:54:57.975Z,99969.92
2022-10-05T07:56:00.489Z,99970.08
2022-10-05T07:57:02.945Z,99965.09
2022-10-05T07:58:05.396Z,99963.09
2022-10-05T07:59:07.843Z,99963.93
2022-10-05T08:00:10.691Z,99963.78
2022-10-05T08:01:13.156Z,99968.25
2022-10-05T08:02:15.749Z,99969.74
2022-10-05T08:03:18.523Z,99970.41
2022-10-05T08:04:21.168Z,99973.39
2022-10-05T08:05:23.723Z,99975.83
2022-10-05T08:06:26.416Z,99980.30
2022-10-05T08:07:28.906Z,99971.36
2022-10-05T08:08:31.404Z,99971.69
2022-10-05T08:09:33.849Z,99979.28
2022-10-05T08:10:36.514Z,99985.35
2022-10-05T08:11:39.034Z,99985.13
2022-10-05T08:12:41.488Z,99981.95
2022-10-05T08:13:43.950Z,99985.58
2022-10-05T08:14:46.401Z,99985.03
2022-10-05T08:15:48.881Z,99980.78
2022-10-05T08:16:51.617Z,99990.28
2022-10-05T08:17:54.101Z,99982.19
2022-10-05T08:18:56.547Z,99982.23
2022-10-05T08:19:58.987Z,99988.88
2022-10-05T08:21:01.635Z,99981.31
2022-10-05T08:22:04.329Z,99975.71
2022-10-05T08:23:06.802Z,99985.37
2022-10-05T08:24:09.253Z,99986.76
2022-10-05T08:25:11.690Z,99992.61
2022-10-05T08:26:14.746Z,99994.95
2022-10-05T08:27:17.205Z,99989.14
2022-10-05T08:28:19.788Z,99995.80
2022-10-05T08:29:22.244Z,99993.29
2022-10-05T08:30:25.089Z,99995.80
2022-10-05T08:31:27.753Z,99988.47
2022-10-05T08:32:30.453Z,99992.95
2022-10-05T08:33:32.890Z,99993.77
2022-10-05T08:34:35.330Z,99988.95
2022-10-05T08:35:37.779Z,99990.10
2022-10-05T08:36:40.489Z,99996.42
2022-10-05T08:37:42.972Z,100001.80
2022-10-05T08:38:45.420Z,100007.42
2022-10-05T08:39:47.975Z,100004.91
2022-10-05T08:40:50.573Z,100007.35
2022-10-05T08:41:53.518Z,100001.36
2022-10-05T08:42:56.329Z,100001.83
2022-10-05T08:43:58.824Z,100006.63
2022-10-05T08:45:01.267Z,100006.95
2022-10-05T08:46:04.012Z,100002.06
2022-10-05T08:47:06.585Z,100004.06
2022-10-05T08:48:09.133Z,100002.70
2022-10-05T08:49:11.604Z,100007.36
2022-10-05T08:50:14.243Z,100007.36
2022-10-05T08:51:16.990Z,100009.51
2022-10-05T08:52:19.438Z,100001.73
2022-10-05T08:53:21.916Z,100004.84
2022-10-05T08:54:24.351Z,99999.17
2022-10-05T08:55:26.800Z,100005.17
2022-10-05T08:56:29.363Z,100007.08
2022-10-05T08:57:31.815Z,100008.18
2022-10-05T08:58:34.281Z,100008.35
2022-10-05T08:59:36.760Z,100013.48
2022-10-05T09:00:39.404Z,100015.09
2022-10-05T09:01:41.865Z,100012.00
2022-10-05T09:02:44.536Z,100015.35
2022-10-05T09:03:47.114Z,100012.60
2022-10-05T09:04:49.558Z,100006.47
2022-10-05T09:05:52.000Z,100012.92
2022-10-05T09:06:54.872Z,100011.94
2022-10-05T09:07:57.317Z,100020.48
2022-10-05T09:08:59.799Z,100019.65
2022-10-05T09:10:02.564Z,100019.51
2022-10-05T09:11:05.026Z,100015.81
2022-10-05T09:12:07.577Z,100017.23
2022-10-05T09:13:10.023Z,100016.13
2022-10-05T09:14:12.494Z,100019.81
2022-10-05T09:15:25.324Z,100022.95
2022-10-05T09:16:19.578Z,100015.27
2022-10-05T09:17:22.060Z,100025.73
2022-10-05T09:18:24.502Z,100019.91
2022-10-05T09:19:27.028Z,100019.38
2022-10-05T09:20:29.769Z,100031.92
2022-10-05T09:21:32.557Z,100029.45
2022-10-05T09:22:34.996Z,100023.31
2022-10-05T09:23:37.441Z,100020.75
2022-10-05T09:24:42.031Z,100020.58
2022-10-05T09:25:44.591Z,100024.68
2022-10-05T09:26:47.340Z,100027.86
2022-10-05T09:27:49.793Z,100017.26
2022-10-05T09:28:52.238Z,100029.14
2022-10-05T09:29:55.051Z,100015.50
2022-10-05T09:30:57.769Z,100027.91
2022-10-05T09:32:00.277Z,100025.12
2022-10-05T09:33:02.705Z,100018.86
2022-10-05T09:34:05.390Z,100018.86
2022-10-05T09:35:07.872Z,100030.03
2022-10-05T09:36:11.134Z,100026.94
2022-10-05T09:37:13.569Z,100021.33
2022-10-05T09:38:16.021Z,100024.51
2022-10-05T09:39:18.466Z,100022.55
2022-10-05T09:40:21.177Z,100033.55
2022-10-05T09:41:23.616Z,100032.53
2022-10-05T09:42:26.230Z,100025.73
2022-10-05T09:43:28.690Z,100031.03
2022-10-05T09:44:31.132Z,100030.66
2022-10-05T09:45:34.116Z,100029.27
2022-10-05T09:46:36.567Z,100025.64
2022-10-05T09:47:39.099Z,100028.16
2022-10-05T09:48:41.685Z,100023.66
2022-10-05T09:49:44.127Z,100029.79
2022-10-05T09:50:46.610Z,100019.97
2022-10-05T09:51:49.555Z,100026.16
2022-10-05T09:52:52.325Z,100022.20
2022-10-05T09:53:54.805Z,100032.16
2022-10-05T09:54:57.253Z,100019.84
2022-10-05T09:55:59.708Z,100021.15
2022-10-05T09:57:02.363Z,100023.81
2022-10-05T09:58:04.821Z,100015.27
2022-10-05T09:59:07.305Z,100022.59
2022-10-05T10:00:10.132Z,100029.90
2022-10-05T10:01:29.246Z,100018.39
2022-10-05T10:02:17.270Z,100021.02
2022-10-05T10:03:19.961Z,100024.20
2022-10-05T10:04:22.494Z,100026.56
2022-10-05T10:05:24.923Z,100029.52
2022-10-05T10:06:27.603Z,100026.22
2022-10-05T10:07:30.284Z,100032.21
2022-10-05T10:08:32.716Z,100025.91
2022-10-05T10:09:38.492Z,100024.80
2022-10-05T10:10:39.822Z,100030.63
2022-10-05T10:11:42.590Z,100033.63
2022-10-05T10:12:45.166Z,100033.33
2022-10-05T10:13:47.637Z,100044.31
2022-10-05T10:14:50.074Z,100044.31
2022-10-05T10:15:52.658Z,100046.61
2022-10-05T10:16:55.542Z,100045.45
2022-10-05T10:17:58.009Z,100042.91
2022-10-05T10:19:00.443Z,100033.93
2022-10-05T10:20:03.193Z,100038.06
2022-10-05T10:21:05.636Z,100041.34
2022-10-05T10:22:08.103Z,100039.49
2022-10-05T10:23:10.536Z,100041.78
2022-10-05T10:24:13.021Z,100030.80
2022-10-05T10:25:15.508Z,100037.28
2022-10-05T10:26:18.046Z,100041.53
2022-10-05T10:27:20.514Z,100033.05
2022-10-05T10:28:22.992Z,100039.30
2022-10-05T10:30:28.451Z,100045.52
2022-10-05T10:31:31.662Z,100044.69
2022-10-05T10:32:34.356Z,100044.49
2022-10-05T10:33:36.840Z,100038.81
2022-10-05T10:34:39.277Z,100044.44
2022-10-05T10:35:41.721Z,100043.69
2022-10-05T10:36:44.413Z,100045.30
2022-10-05T10:37:46.896Z,100044.84
2022-10-05T10:38:49.335Z,100047.29
2022-10-05T10:39:51.770Z,100043.94
2022-10-05T10:40:54.408Z,100053.65
2022-10-05T10:41:57.081Z,100048.52
2022-10-05T10:42:59.554Z,100052.84
2022-10-05T10:44:01.995Z,100051.63
2022-10-05T10:45:04.455Z,100048.88
2022-10-05T10:46:07.574Z,100051.83
2022-10-05T10:47:10.280Z,100054.27
2022-10-05T10:48:12.952Z,100066.23
2022-10-05T10:49:15.429Z,100060.69
2022-10-05T10:50:18.170Z,100059.50
2022-10-05T10:51:20.668Z,100069.04
2022-10-05T10:52:23.101Z,100062.12
2022-10-05T10:53:25.563Z,100059.78
2022-10-05T10:54:28.135Z,100064.77
2022-10-05T10:55:30.594Z,100063.97
2022-10-05T10:56:33.346Z,100061.45
2022-10-05T10:57:35.801Z,100059.95
2022-10-05T10:58:38.276Z,100062.65
2022-10-05T10:59:40.716Z,100059.91
2022-10-05T11:00:43.275Z,100060.61
2022-10-05T11:01:46.175Z,100067.94
2022-10-05T11:02:49.288Z,100068.48
2022-10-05T11:03:51.981Z,100066.13
2022-10-05T11:04:54.494Z,100067.02
2022-10-05T11:05:56.983Z,100076.33
2022-10-05T11:06:59.617Z,100067.86
2022-10-05T11:08:02.062Z,100066.48
2022-10-05T11:09:04.534Z,100067.77
2022-10-05T11:10:07.276Z,100074.73
2022-10-05T11:11:09.712Z,100070.04
2022-10-05T11:12:12.176Z,100070.17
2022-10-05T11:13:14.714Z,100074.50
2022-10-05T11:14:17.213Z,100068.90
2022-10-05T11:15:19.652Z,100066.66
2022-10-05T11:16:22.126Z,100073.84
2022-10-05T11:17:24.602Z,100073.98
2022-10-05T11:18:27.035Z,100072.04
2022-10-05T11:19:39.981Z,100080.87
2022-10-05T11:20:34.060Z,100071.30
2022-10-05T11:21:36.497Z,100069.17
2022-10-05T11:22:38.932Z,100076.81
2022-10-05T11:23:41.370Z,100079.77
2022-10-05T11:24:43.849Z,100074.25
2022-10-05T11:25:46.381Z,100076.59
2022-10-05T11:26:49.376Z,100078.63
2022-10-05T11:27:52.054Z,100080.69
2022-10-05T11:28:54.731Z,100083.65
2022-10-05T11:29:57.216Z,100079.63
2022-10-05T11:30:59.849Z,100076.15
2022-10-05T11:32:02.414Z,100078.94
2022-10-05T11:33:04.845Z,100078.48
2022-10-05T11:34:07.283Z,100086.44
2022-10-05T11:35:10.042Z,100095.62
2022-10-05T11:36:13.101Z,100093.41
2022-10-05T11:37:15.592Z,100092.88
2022-10-05T11:38:18.031Z,100095.80
2022-10-05T11:39:20.473Z,100089.45
2022-10-05T11:40:23.242Z,100097.13
2022-10-05T11:41:25.690Z,100095.75
2022-10-05T11:42:28.128Z,100097.03
2022-10-05T11:43:30.592Z,100097.17
2022-10-05T11:44:33.028Z,100102.23
2022-10-05T11:45:35.521Z,100105.63
2022-10-05T11:46:38.456Z,100102.28
2022-10-05T11:47:40.920Z,100110.09
2022-10-05T11:48:43.366Z,100115.98
2022-10-05T11:49:45.815Z,100109.31
2022-10-05T11:50:48.808Z,100110.96
2022-10-05T11:51:51.703Z,100109.22
2022-10-05T11:52:54.662Z,100111.46
2022-10-05T11:53:57.134Z,100104.12
2022-10-05T11:55:10.448Z,100103.11
2022-10-05T11:56:04.260Z,100106.30
2022-10-05T11:57:06.694Z,100108.67
2022-10-05T11:58:09.161Z,100113.13
2022-10-05T11:59:11.623Z,100108.52
2022-10-05T12:00:14.566Z,100120.48
2022-10-05T12:01:17.755Z,100113.23
2022-10-05T12:02:20.822Z,100111.70
2022-10-05T12:03:23.348Z,100112.53
2022-10-05T12:04:25.811Z,100111.56
2022-10-05T12:05:28.280Z,100110.73
2022-10-05T12:06:30.846Z,100115.18
2022-10-05T12:07:33.300Z,100116.32
2022-10-05T12:08:35.741Z,100124.94
2022-10-05T12:09:38.178Z,100122.45